Time;durP1;ratioP1;P1;durP2;ratioP2;P2;SDS_P1;SDS_P2;PMS_P1;PMS_P2;Temp;Humidity;BMP_temperature;BMP_pressure;BME280_temperature;BME280_humidity;BME280_pressure;Samples;Min_cycle;Max_cycle;Signal;HPM_P1;HPM_P2
2021/03/03 00:00:27;;;;;;;11.40;6.55;;;;;;;25.57;34.21;101259.59;4486222;31;33651;-71
2021/03/03 00:02:55;;;;;;;11.85;6.37;;;;;;;25.56;34.21;101260.66;4482158;32;35237;-57
2021/03/03 00:05:22;;;;;;;11.25;6.47;;;;;;;25.54;34.33;101257.28;4483590;32;33451;-59
2021/03/03 00:07:49;;;;;;;13.15;6.15;;;;;;;25.54;34.40;101261.91;4483797;32;33294;-61
2021/03/03 00:10:16;;;;;;;13.18;6.30;;;;;;;25.52;34.35;101259.38;4481305;31;34317;-58
2021/03/03 00:12:44;;;;;;;15.13;5.93;;;;;;;25.50;34.45;101260.63;4482975;32;33878;-62
2021/03/03 00:15:11;;;;;;;15.88;7.40;;;;;;;25.49;34.53;101253.47;4483995;32;33819;-64
2021/03/03 00:17:39;;;;;;;13.43;6.62;;;;;;;25.46;34.48;101254.75;4484187;32;33070;-59
2021/03/03 00:20:07;;;;;;;13.82;6.22;;;;;;;25.44;34.48;101254.94;4483915;32;34581;-66
2021/03/03 00:22:34;;;;;;;10.32;6.15;;;;;;;25.42;34.60;101258.94;4483732;31;33757;-64
2021/03/03 00:25:02;;;;;;;11.15;6.12;;;;;;;25.40;34.55;101258.28;4482683;32;32777;-60
2021/03/03 00:27:29;;;;;;;11.45;6.55;;;;;;;25.37;34.58;101254.09;4476306;31;33326;-56
2021/03/03 00:30:13;;;;;;;12.37;6.22;;;;;;;25.37;34.57;101250.50;4482595;32;33930;-54
2021/03/03 00:32:40;;;;;;;11.25;6.90;;;;;;;25.35;34.60;101247.13;4483776;32;34743;-62
2021/03/03 00:35:08;;;;;;;11.45;6.35;;;;;;;25.34;34.72;101242.72;4468130;32;33653;-61
2021/03/03 00:37:35;;;;;;;10.63;6.40;;;;;;;25.32;34.73;101247.53;4483400;32;32996;-69
2021/03/03 00:40:06;;;;;;;11.32;6.45;;;;;;;25.31;34.78;101240.37;4482549;32;33518;-63
2021/03/03 00:42:33;;;;;;;12.30;6.40;;;;;;;25.29;34.83;101239.75;4482241;32;33631;-59
2021/03/03 00:45:01;;;;;;;14.50;5.62;;;;;;;25.27;34.79;101242.66;4483718;32;33493;-63
2021/03/03 00:47:28;;;;;;;12.50;5.87;;;;;;;25.26;34.81;101240.16;4483650;32;33285;-58
2021/03/03 00:49:57;;;;;;;10.70;6.85;;;;;;;25.25;34.86;101233.00;4483732;32;33576;-63
2021/03/03 00:52:25;;;;;;;9.93;5.47;;;;;;;25.25;34.82;101235.75;4483801;32;34809;-58
2021/03/03 00:54:53;;;;;;;15.05;6.30;;;;;;;25.23;34.91;101229.63;4483599;32;34435;-66
2021/03/03 00:57:20;;;;;;;11.48;5.65;;;;;;;25.22;34.90;101227.94;4483678;32;33964;-57
2021/03/03 00:59:47;;;;;;;11.63;6.37;;;;;;;25.18;34.88;101222.91;4482749;31;34779;-61
2021/03/03 01:02:17;;;;;;;9.13;5.90;;;;;;;25.17;34.94;101223.09;4480287;32;34217;-54
2021/03/03 01:04:44;;;;;;;11.65;6.05;;;;;;;25.15;35.01;101223.31;4481874;32;33400;-64
2021/03/03 01:07:12;;;;;;;10.63;6.15;;;;;;;25.14;35.00;101224.34;4483134;32;33129;-62
2021/03/03 01:09:39;;;;;;;11.65;6.62;;;;;;;25.14;35.06;101220.78;4483207;32;33574;-60
2021/03/03 01:12:06;;;;;;;9.00;5.72;;;;;;;25.12;35.21;101220.13;4483182;32;34759;-68
2021/03/03 01:14:36;;;;;;;10.88;5.50;;;;;;;25.11;35.26;101213.00;4483525;32;34334;-69
2021/03/03 01:17:04;;;;;;;15.60;5.80;;;;;;;25.10;35.19;101216.78;4483569;32;33210;-62
2021/03/03 01:19:31;;;;;;;13.05;5.87;;;;;;;25.07;35.19;101207.09;4482208;31;32238;-64
2021/03/03 01:21:59;;;;;;;15.85;5.62;;;;;;;25.07;35.20;101212.53;4482000;32;33840;-60
2021/03/03 01:24:26;;;;;;;9.48;5.78;;;;;;;25.07;35.28;101207.09;4486038;31;33512;-69
2021/03/03 01:26:53;;;;;;;12.40;5.65;;;;;;;25.04;35.39;101204.75;4482894;32;34080;-69
2021/03/03 01:29:20;;;;;;;10.77;5.53;;;;;;;25.02;35.38;101198.63;4479688;32;33855;-55
2021/03/03 01:31:47;;;;;;;10.18;5.65;;;;;;;25.01;35.36;101205.16;4482170;32;33819;-58
2021/03/03 01:34:14;;;;;;;10.95;5.72;;;;;;;25.01;35.36;101196.94;4481644;31;34369;-65
2021/03/03 01:36:42;;;;;;;10.30;6.15;;;;;;;25.00;35.38;101206.19;4482185;32;33578;-58
2021/03/03 01:39:09;;;;;;;11.43;5.30;;;;;;;24.98;35.51;101202.81;4483021;32;33869;-61
2021/03/03 01:41:36;;;;;;;11.12;5.80;;;;;;;24.98;35.58;101202.81;4482697;32;33916;-60
2021/03/03 01:44:03;;;;;;;12.35;5.95;;;;;;;24.96;35.50;101198.63;4482957;32;33548;-60
2021/03/03 01:46:30;;;;;;;13.82;6.30;;;;;;;24.94;35.46;101194.19;4483032;32;33381;-60
2021/03/03 01:48:58;;;;;;;10.68;5.30;;;;;;;24.93;35.48;101197.97;4482578;32;33885;-67
2021/03/03 01:51:25;;;;;;;9.05;5.28;;;;;;;24.93;35.43;101195.22;4483039;32;34667;-56
2021/03/03 01:53:53;;;;;;;11.50;6.05;;;;;;;24.91;35.48;101191.88;4483107;32;33691;-59
2021/03/03 01:56:20;;;;;;;10.27;6.00;;;;;;;24.91;35.50;101193.75;4484899;32;33033;-62
2021/03/03 01:58:47;;;;;;;14.30;6.25;;;;;;;24.90;35.61;101195.66;4484929;32;33720;-63
2021/03/03 02:01:17;;;;;;;12.05;5.72;;;;;;;24.89;35.55;101188.50;4484971;32;34046;-65
2021/03/03 02:03:44;;;;;;;9.73;5.47;;;;;;;24.89;35.66;101191.22;4484792;32;34585;-59
2021/03/03 02:06:24;;;;;;;10.45;6.22;;;;;;;24.87;35.78;101190.59;4484851;32;33249;-58
2021/03/03 02:09:06;;;;;;;12.48;6.15;;;;;;;24.86;35.71;101185.34;4484951;32;33771;-70
2021/03/03 02:12:08;;;;;;;11.80;5.45;;;;;;;24.86;35.65;101186.19;4483770;32;33872;-59
2021/03/03 02:14:36;;;;;;;10.48;5.40;;;;;;;24.84;35.72;101185.53;4480313;31;34441;-62
2021/03/03 02:17:03;;;;;;;9.98;6.05;;;;;;;24.83;35.72;101183.00;4470753;32;33197;-65
2021/03/03 02:19:34;;;;;;;11.10;5.37;;;;;;;24.80;35.72;101181.50;4483451;32;33550;-55
2021/03/03 02:22:07;;;;;;;8.07;4.95;;;;;;;24.79;35.74;101181.72;4484864;32;33931;-65
2021/03/03 02:24:42;;;;;;;10.75;5.60;;;;;;;24.78;35.71;101177.31;4484740;32;34457;-66
2021/03/03 02:27:09;;;;;;;10.45;5.57;;;;;;;24.78;35.74;101185.50;4484702;32;33371;-64
2021/03/03 02:29:36;;;;;;;11.10;5.25;;;;;;;24.76;35.82;101183.00;4467833;32;33909;-59
2021/03/03 02:32:04;;;;;;;10.60;5.30;;;;;;;24.75;35.80;101177.72;4454787;32;34815;-66
2021/03/03 02:34:31;;;;;;;9.52;5.40;;;;;;;24.73;35.74;101180.66;4454739;32;33797;-62
2021/03/03 02:36:58;;;;;;;9.32;5.35;;;;;;;24.73;35.80;101174.34;4469015;32;33277;-56
2021/03/03 02:39:26;;;;;;;11.23;5.35;;;;;;;24.72;35.81;101178.12;4468826;32;33829;-65
2021/03/03 02:41:54;;;;;;;12.32;5.78;;;;;;;24.71;35.85;101177.25;4468957;32;33939;-61
2021/03/03 02:44:21;;;;;;;9.65;5.03;;;;;;;24.71;35.95;101170.97;4468939;32;34214;-64
2021/03/03 02:46:48;;;;;;;9.85;5.68;;;;;;;24.70;35.91;101175.59;4467772;32;33031;-61
2021/03/03 02:49:17;;;;;;;10.77;5.03;;;;;;;24.69;35.88;101180.22;4467690;32;33914;-59
2021/03/03 02:51:44;;;;;;;11.23;5.97;;;;;;;24.67;35.88;101165.94;4487730;31;34888;-72
2021/03/03 02:54:12;;;;;;;10.50;5.35;;;;;;;24.66;35.89;101164.22;4484400;32;33766;-71
2021/03/03 02:56:40;;;;;;;9.93;5.40;;;;;;;24.65;35.92;101168.00;4480804;32;33083;-66
2021/03/03 02:59:33;;;;;;;;;;;;;;;24.64;35.92;101171.78;4464533;32;33753;-62
2021/03/03 03:02:02;;;;;;;12.00;5.57;;;;;;;24.75;35.82;101166.78;4476546;31;34182;-63
2021/03/03 03:04:32;;;;;;;14.25;5.30;;;;;;;24.65;35.95;101164.44;4483237;32;34265;-61
2021/03/03 03:07:01;;;;;;;8.18;4.40;;;;;;;24.62;35.96;101165.69;4478979;32;33414;-71
2021/03/03 03:09:28;;;;;;;9.30;4.87;;;;;;;24.61;36.03;101168.59;4470287;32;33885;-68
2021/03/03 03:11:55;;;;;;;12.65;5.35;;;;;;;24.58;36.02;101164.41;4483134;32;34809;-70
2021/03/03 03:14:27;;;;;;;11.52;5.37;;;;;;;24.58;36.02;101164.41;4470379;32;33446;-69
2021/03/03 03:16:55;;;;;;;10.82;5.47;;;;;;;24.57;35.99;101165.44;4483464;32;33034;-60
2021/03/03 03:19:25;;;;;;;7.62;5.10;;;;;;;24.56;36.04;101169.22;4476609;32;33867;-55
2021/03/03 03:21:52;;;;;;;11.77;4.97;;;;;;;24.55;36.03;101174.88;4460289;32;33862;-62
2021/03/03 03:24:19;;;;;;;8.10;4.82;;;;;;;24.55;36.01;101169.41;4470100;32;33343;-60
2021/03/03 03:26:49;;;;;;;10.68;5.85;;;;;;;24.54;36.05;101168.59;4484331;32;33238;-59
2021/03/03 03:29:17;;;;;;;10.23;5.35;;;;;;;24.53;36.07;101169.63;4470106;32;33814;-62
2021/03/03 03:31:45;;;;;;;10.38;5.07;;;;;;;24.53;36.12;101175.09;4484673;31;33983;-66
2021/03/03 03:34:12;;;;;;;9.05;5.20;;;;;;;24.51;36.09;101170.88;4482858;32;34476;-70
2021/03/03 03:36:39;;;;;;;8.77;4.90;;;;;;;24.51;36.12;101170.88;4470342;32;34069;-67
2021/03/03 03:39:07;;;;;;;8.43;5.18;;;;;;;24.49;36.20;101170.22;4470252;32;33712;-71
2021/03/03 03:41:34;;;;;;;7.87;5.18;;;;;;;24.49;36.19;101165.63;4484225;32;34815;-70
2021/03/03 03:44:01;;;;;;;11.95;5.00;;;;;;;24.47;36.25;101167.69;4483095;32;34638;-70
2021/03/03 03:46:28;;;;;;;9.10;5.05;;;;;;;24.48;36.29;101165.78;4470133;32;33480;-71
2021/03/03 03:48:56;;;;;;;10.60;5.28;;;;;;;24.47;36.28;101173.13;4482824;32;35500;-65
2021/03/03 03:51:23;;;;;;;11.73;5.22;;;;;;;24.46;36.37;101171.47;4470022;32;33858;-70
2021/03/03 03:53:50;;;;;;;7.47;4.80;;;;;;;24.46;36.39;101166.00;4483220;32;33407;-71
2021/03/03 03:56:17;;;;;;;8.95;4.93;;;;;;;24.45;36.40;101169.78;4482747;32;33030;-71
2021/03/03 03:58:44;;;;;;;9.15;4.75;;;;;;;24.44;36.43;101170.84;4482959;32;34565;-70
2021/03/03 04:01:11;;;;;;;11.27;5.20;;;;;;;24.45;36.40;101167.06;4484254;32;33563;-71
2021/03/03 04:03:38;;;;;;;9.02;4.90;;;;;;;24.43;36.41;101167.28;4483963;32;33614;-68
2021/03/03 04:06:06;;;;;;;8.75;5.10;;;;;;;24.43;36.43;101171.84;4484372;32;32987;-70
2021/03/03 04:08:33;;;;;;;8.93;4.70;;;;;;;24.40;36.43;101172.28;4484052;32;33683;-72
2021/03/03 04:11:00;;;;;;;7.72;4.80;;;;;;;24.40;36.50;101178.56;4482555;32;34588;-61
2021/03/03 04:13:27;;;;;;;7.35;4.50;;;;;;;24.40;36.46;101178.56;4483493;32;33646;-54
2021/03/03 04:15:54;;;;;;;8.00;5.00;;;;;;;24.39;36.51;101176.06;4485971;31;33294;-71
2021/03/03 04:18:21;;;;;;;7.80;4.32;;;;;;;24.39;36.49;101178.78;4483945;32;35499;-67
2021/03/03 04:20:48;;;;;;;7.87;4.95;;;;;;;24.38;36.52;101177.91;4483894;32;33896;-70
2021/03/03 04:23:15;;;;;;;10.23;4.68;;;;;;;24.37;36.62;101181.69;4483809;32;34693;-69
2021/03/03 04:25:43;;;;;;;8.07;4.72;;;;;;;24.36;36.52;101171.81;4483927;32;33411;-68
2021/03/03 04:28:10;;;;;;;8.60;4.90;;;;;;;24.36;36.57;101177.28;4483915;32;35125;-71
2021/03/03 04:30:37;;;;;;;8.13;4.68;;;;;;;24.36;36.58;101173.69;4483842;32;33942;-71
2021/03/03 04:33:19;;;;;;;8.77;4.53;;;;;;;24.35;36.57;101181.03;4483585;32;34625;-69
2021/03/03 04:35:46;;;;;;;9.55;4.90;;;;;;;24.35;36.61;101175.56;4483869;32;33348;-68
2021/03/03 04:38:13;;;;;;;8.45;4.93;;;;;;;24.33;36.69;101174.91;4484100;32;35018;-69
2021/03/03 04:40:40;;;;;;;9.38;4.87;;;;;;;24.33;36.66;101180.38;4483649;32;33852;-66
2021/03/03 04:43:08;;;;;;;8.23;4.97;;;;;;;24.32;36.69;101177.84;4483810;32;33824;-69
2021/03/03 04:45:35;;;;;;;9.60;5.00;;;;;;;24.32;36.67;101178.69;4483795;32;33252;-70
2021/03/03 04:48:02;;;;;;;13.10;4.55;;;;;;;24.32;36.69;101178.69;4483620;32;33501;-71
2021/03/03 04:50:30;;;;;;;8.18;4.90;;;;;;;24.30;36.61;101177.22;4482500;32;34053;-70
2021/03/03 04:52:57;;;;;;;8.93;4.62;;;;;;;24.31;36.63;101174.28;4483705;32;33524;-68
2021/03/03 04:55:27;;;;;;;9.43;4.65;;;;;;;24.30;36.61;101171.75;4483541;32;33246;-68
2021/03/03 04:57:54;;;;;;;9.70;4.57;;;;;;;24.30;36.65;101179.94;4483521;32;33814;-67
2021/03/03 05:00:21;;;;;;;7.47;4.15;;;;;;;24.29;36.70;101179.06;4483509;32;33583;-70
2021/03/03 05:02:48;;;;;;;8.23;4.78;;;;;;;24.28;36.72;101171.94;4483549;32;34230;-65
2021/03/03 05:05:16;;;;;;;8.05;4.50;;;;;;;24.27;36.69;101178.44;4483616;32;33185;-69
2021/03/03 05:07:43;;;;;;;9.27;4.95;;;;;;;24.27;36.69;101167.53;4483297;32;34938;-70
2021/03/03 05:10:10;;;;;;;9.18;4.90;;;;;;;24.28;36.67;101171.09;4483080;32;33814;-64
2021/03/03 05:12:37;;;;;;;8.23;4.85;;;;;;;24.27;36.68;101174.88;4483507;32;33767;-69
2021/03/03 05:15:05;;;;;;;8.73;4.82;;;;;;;24.25;36.66;101177.81;4483468;32;32837;-71
2021/03/03 05:17:33;;;;;;;10.20;4.68;;;;;;;24.24;36.66;101176.09;4483225;32;35425;-69
2021/03/03 05:20:00;;;;;;;11.27;4.78;;;;;;;24.25;36.67;101176.94;4483277;32;34891;-71
2021/03/03 05:22:28;;;;;;;8.13;4.43;;;;;;;24.24;36.66;101172.53;4483533;32;34361;-65
2021/03/03 05:24:56;;;;;;;9.85;4.68;;;;;;;24.23;36.68;101173.59;4482983;32;33377;-71
2021/03/03 05:27:22;;;;;;;9.07;4.55;;;;;;;24.23;36.65;101170.84;4483254;32;33705;-71
2021/03/03 05:29:49;;;;;;;7.25;4.57;;;;;;;24.22;36.72;101177.34;4485115;32;34286;-70
2021/03/03 05:32:17;;;;;;;8.48;5.03;;;;;;;24.19;36.67;101179.44;4483409;32;34385;-64
2021/03/03 05:34:45;;;;;;;10.07;4.57;;;;;;;24.20;36.68;101174.81;4484522;32;33348;-58
2021/03/03 05:37:12;;;;;;;7.75;4.55;;;;;;;24.18;36.73;101169.56;4485173;32;33871;-62
2021/03/03 05:39:39;;;;;;;8.10;4.25;;;;;;;24.18;36.69;101172.28;4484950;32;33569;-64
2021/03/03 05:42:06;;;;;;;7.55;4.18;;;;;;;24.17;36.72;101176.06;4485048;32;34649;-55
2021/03/03 05:44:33;;;;;;;7.35;4.72;;;;;;;24.17;36.69;101173.34;4485380;32;33238;-59
2021/03/03 05:47:00;;;;;;;8.95;4.47;;;;;;;24.16;36.73;101173.53;4483675;32;34721;-66
2021/03/03 05:49:28;;;;;;;8.30;4.65;;;;;;;24.15;36.67;101172.72;4483518;32;34053;-58
2021/03/03 05:51:55;;;;;;;8.32;4.82;;;;;;;24.16;36.75;101173.53;4475333;32;34713;-60
2021/03/03 05:54:22;;;;;;;6.55;4.22;;;;;;;24.15;36.67;101177.28;4454930;32;32848;-66
2021/03/03 05:56:50;;;;;;;9.35;3.95;;;;;;;24.14;36.67;101181.91;4469279;32;33978;-57
2021/03/03 05:59:36;;;;;;;7.43;4.45;;;;;;;24.13;36.60;101179.37;4467922;32;32776;-64
2021/03/03 06:02:04;;;;;;;7.80;4.37;;;;;;;24.14;36.63;101175.59;4468017;32;33740;-62
2021/03/03 06:04:31;;;;;;;7.90;4.80;;;;;;;24.12;36.57;101184.00;4467958;32;34205;-60
2021/03/03 06:06:59;;;;;;;7.25;4.10;;;;;;;24.12;36.63;101178.53;4468978;32;33775;-62
2021/03/03 06:09:26;;;;;;;7.05;3.85;;;;;;;24.10;36.58;101177.88;4475239;32;34621;-58
2021/03/03 06:11:55;;;;;;;10.98;4.25;;;;;;;24.10;36.55;101180.59;4484939;32;33762;-63
2021/03/03 06:14:22;;;;;;;9.05;4.37;;;;;;;24.09;36.66;101173.47;4483461;32;34066;-53
2021/03/03 06:16:49;;;;;;;9.80;4.70;;;;;;;24.10;36.80;101175.16;4483606;32;33645;-63
2021/03/03 06:19:17;;;;;;;8.35;4.50;;;;;;;24.09;36.77;101170.75;4485114;32;33927;-65
2021/03/03 06:21:44;;;;;;;12.88;4.22;;;;;;;24.09;36.80;101170.75;4483382;32;33819;-59
2021/03/03 06:24:11;;;;;;;7.35;3.95;;;;;;;24.08;36.76;101168.22;4483787;32;33376;-62
2021/03/03 06:26:58;;;;;;;8.05;4.32;;;;;;;24.08;36.80;101165.50;4483489;32;33451;-62
2021/03/03 06:29:25;;;;;;;8.02;4.85;;;;;;;24.10;36.78;101169.69;4484430;32;33920;-61
2021/03/03 06:31:52;;;;;;;9.18;4.32;;;;;;;24.06;36.78;101170.28;4484255;32;33747;-64
2021/03/03 06:34:47;;;;;;;8.55;4.50;;;;;;;24.06;36.78;101165.72;4484809;32;34001;-64
2021/03/03 06:37:15;;;;;;;8.93;4.40;;;;;;;24.07;36.76;101177.47;4484806;32;33847;-69
2021/03/03 06:39:42;;;;;;;8.70;4.47;;;;;;;24.05;36.69;101177.62;4470046;32;34770;-59
2021/03/03 06:42:10;;;;;;;9.23;4.45;;;;;;;24.05;36.79;101164.00;4484577;32;33449;-64
2021/03/03 06:44:51;;;;;;;6.43;4.00;;;;;;;24.04;36.75;101170.50;4484621;32;33050;-60
2021/03/03 06:47:19;;;;;;;9.55;4.60;;;;;;;24.04;36.74;101173.22;4484630;32;33775;-59
2021/03/03 06:49:49;;;;;;;6.20;3.75;;;;;;;24.03;36.76;101170.72;4483676;32;33832;-56
2021/03/03 06:52:16;;;;;;;8.18;4.40;;;;;;;24.02;36.73;101172.59;4484786;32;33744;-62
2021/03/03 06:54:43;;;;;;;13.40;5.45;;;;;;;24.02;36.76;101169.03;4484525;32;33260;-64
2021/03/03 06:57:14;;;;;;;8.98;4.22;;;;;;;24.02;36.74;101177.22;4484580;32;33705;-63
2021/03/03 06:59:43;;;;;;;7.28;3.90;;;;;;;24.02;36.80;101175.31;4484726;32;33842;-60
2021/03/03 07:02:10;;;;;;;7.55;4.10;;;;;;;24.00;36.78;101174.66;4483509;32;33837;-60
2021/03/03 07:04:39;;;;;;;7.97;4.22;;;;;;;24.01;36.73;101172.78;4484570;32;34326;-61
2021/03/03 07:07:12;;;;;;;7.57;3.92;;;;;;;24.01;36.82;101168.16;4484280;32;33757;-60
2021/03/03 07:09:45;;;;;;;6.28;3.78;;;;;;;24.02;36.80;101164.41;4483102;32;33865;-68
2021/03/03 07:12:20;;;;;;;7.47;4.80;;;;;;;24.00;36.83;101163.75;4484424;32;33685;-61
2021/03/03 07:15:08;;;;;;;8.25;4.12;;;;;;;23.99;36.81;101167.53;4484164;32;33908;-62
2021/03/03 07:17:39;;;;;;;7.10;3.65;;;;;;;24.02;36.78;101166.31;4484294;32;33812;-60
2021/03/03 07:20:07;;;;;;;8.85;3.95;;;;;;;23.98;36.84;101168.56;4484431;32;33780;-62
2021/03/03 07:22:36;;;;;;;7.15;4.30;;;;;;;23.98;36.80;101165.84;4484327;32;33690;-59
2021/03/03 07:25:04;;;;;;;9.05;3.97;;;;;;;23.99;36.85;101159.34;4484398;32;32983;-59
2021/03/03 07:27:32;;;;;;;9.65;4.05;;;;;;;23.99;36.70;101163.97;4484379;32;33839;-59
2021/03/03 07:30:18;;;;;;;9.43;4.43;;;;;;;23.98;36.75;101165.84;4484125;32;34042;-64
2021/03/03 07:32:46;;;;;;;10.30;4.10;;;;;;;23.99;36.88;101163.97;4478410;32;34695;-59
2021/03/03 07:35:29;;;;;;;7.22;3.62;;;;;;;23.97;36.74;101161.44;4477384;32;33910;-62
2021/03/03 07:37:57;;;;;;;11.85;3.95;;;;;;;23.98;36.73;101163.13;4485748;31;33474;-56
2021/03/03 07:40:28;;;;;;;10.18;4.30;;;;;;;23.98;36.72;101165.84;4476382;31;35052;-56
2021/03/03 07:42:56;;;;;;;7.25;3.40;;;;;;;23.98;36.70;101160.41;4482002;32;33754;-54
2021/03/03 07:45:28;;;;;;;8.60;4.07;;;;;;;23.98;36.75;101168.56;4484028;32;33353;-55
2021/03/03 07:47:55;;;;;;;18.33;8.30;;;;;;;23.97;36.82;101161.44;4484184;32;33710;-60
2021/03/03 07:50:23;;;;;;;17.50;10.13;;;;;;;23.98;35.80;101160.41;4469259;32;34843;-64
2021/03/03 07:52:54;;;;;;;14.32;10.18;;;;;;;23.98;32.91;101162.28;4467237;32;33740;-55
2021/03/03 07:55:22;;;;;;;13.48;8.48;;;;;;;23.91;32.63;101165.78;4467118;32;34046;-50
2021/03/03 07:57:53;;;;;;;14.43;9.55;;;;;;;23.93;33.70;101154.69;4468758;32;33932;-59
2021/03/03 08:00:27;;;;;;;23.73;9.40;;;;;;;23.90;34.04;101161.38;4480946;32;34692;-59
2021/03/03 08:02:55;;;;;;;15.90;10.35;;;;;;;23.89;34.08;101161.59;4470553;32;33865;-61
2021/03/03 08:05:36;;;;;;;12.43;7.82;;;;;;;23.86;34.37;101165.53;4482785;32;34791;-60
2021/03/03 08:08:10;;;;;;;22.92;8.93;;;;;;;23.88;34.54;101159.91;4483940;32;33905;-73
2021/03/03 08:10:41;;;;;;;22.50;9.68;;;;;;;23.86;34.82;101164.69;4484026;32;34733;-58
2021/03/03 08:13:13;;;;;;;23.55;10.80;;;;;;;23.86;34.20;101167.41;4475766;32;33762;-51
2021/03/03 08:15:41;;;;;;;21.42;10.43;;;;;;;23.85;34.10;101163.00;4479055;32;33362;-49
2021/03/03 08:18:18;;;;;;;23.35;10.93;;;;;;;23.84;34.08;101161.34;4483133;32;33848;-59
2021/03/03 08:20:49;;;;;;;21.70;9.93;;;;;;;23.84;34.22;101164.91;4483650;32;33861;-65
2021/03/03 08:23:43;;;;;;;24.63;11.32;;;;;;;23.82;34.38;101161.50;4483831;32;33731;-58
2021/03/03 08:26:17;;;;;;;21.85;9.52;;;;;;;23.85;34.40;101158.41;4453237;31;33361;-65
2021/03/03 08:28:44;;;;;;;19.25;9.52;;;;;;;23.84;34.49;101155.87;4482482;32;33882;-55
2021/03/03 08:31:11;;;;;;;19.60;10.20;;;;;;;23.82;34.66;101160.66;4483448;32;33220;-53
2021/03/03 08:33:45;;;;;;;16.15;9.45;;;;;;;23.82;34.74;101160.66;4483373;32;33787;-61
2021/03/03 08:36:21;;;;;;;21.23;10.20;;;;;;;23.82;34.80;101163.38;4482994;32;34078;-67
2021/03/03 08:39:09;;;;;;;16.98;9.48;;;;;;;23.83;34.94;101154.19;4483541;32;34659;-56
2021/03/03 08:41:40;;;;;;;19.02;8.82;;;;;;;23.84;34.88;101154.00;4483103;32;34916;-61
2021/03/03 08:44:14;;;;;;;19.00;9.13;;;;;;;23.84;34.94;101153.16;4483599;32;33875;-60
2021/03/03 08:46:42;;;;;;;25.67;8.88;;;;;;;23.85;34.95;101154.84;4483348;32;34358;-66
2021/03/03 08:49:09;;;;;;;19.95;8.65;;;;;;;23.85;35.04;101152.09;4483448;32;33968;-56
2021/03/03 08:51:43;;;;;;;20.90;8.60;;;;;;;23.85;35.08;101161.12;4483324;32;34840;-59
2021/03/03 08:54:10;;;;;;;19.05;8.52;;;;;;;23.85;35.14;101157.56;4483202;32;33784;-57
2021/03/03 08:56:44;;;;;;;18.48;8.18;;;;;;;23.86;35.17;101165.53;4483763;32;33406;-56
2021/03/03 08:59:33;;;;;;;13.93;7.80;;;;;;;23.86;35.21;101159.22;4483382;32;34567;-56
2021/03/03 09:02:17;;;;;;;16.55;8.05;;;;;;;23.87;35.30;101155.47;4481702;32;34950;-55
2021/03/03 09:04:45;;;;;;;17.30;8.80;;;;;;;23.88;35.28;101159.91;4481962;32;33774;-57
2021/03/03 09:07:23;;;;;;;17.83;7.45;;;;;;;23.87;35.33;101158.19;4482748;32;34359;-52
2021/03/03 09:09:52;;;;;;;18.67;9.43;;;;;;;23.86;35.38;101149.16;4483205;32;33779;-55
2021/03/03 09:12:23;;;;;;;14.85;8.07;;;;;;;23.87;35.39;101141.84;4476646;32;33821;-61
2021/03/03 09:14:51;;;;;;;16.58;7.57;;;;;;;23.88;35.35;101151.72;4467439;32;33719;-51
2021/03/03 09:17:21;;;;;;;18.65;8.20;;;;;;;23.88;35.52;101151.72;4467404;32;34317;-65
2021/03/03 09:19:48;;;;;;;21.20;8.05;;;;;;;23.87;35.61;101147.28;4467378;32;33767;-58
2021/03/03 09:22:26;;;;;;;16.08;7.90;;;;;;;23.90;35.56;101146.91;4481335;32;33875;-58
2021/03/03 09:24:55;;;;;;;12.37;7.20;;;;;;;23.90;35.56;101141.44;4481647;32;33812;-58
2021/03/03 09:27:24;;;;;;;14.20;7.22;;;;;;;23.88;35.55;101141.66;4482961;32;33322;-55
2021/03/03 09:29:51;;;;;;;18.37;7.15;;;;;;;23.88;35.59;101138.94;4483021;32;33674;-65
2021/03/03 09:32:22;;;;;;;13.98;7.47;;;;;;;23.89;35.59;101139.78;4482990;32;34357;-51
2021/03/03 09:34:51;;;;;;;13.45;7.70;;;;;;;23.89;35.60;101143.34;4483171;32;34257;-63
2021/03/03 09:37:18;;;;;;;13.45;7.28;;;;;;;23.90;35.64;101141.44;4482917;32;34161;-57
2021/03/03 09:39:54;;;;;;;15.50;6.68;;;;;;;23.89;35.59;101132.44;4482848;32;34951;-54
2021/03/03 09:42:22;;;;;;;13.60;6.18;;;;;;;23.89;35.63;101137.03;4481812;32;33636;-56
2021/03/03 09:44:57;;;;;;;18.60;6.53;;;;;;;23.89;35.61;101126.16;4481537;32;33684;-54
2021/03/03 09:47:30;;;;;;;15.00;6.90;;;;;;;23.91;35.65;101129.50;4482872;32;34048;-65
2021/03/03 09:50:05;;;;;;;13.13;6.90;;;;;;;23.89;35.69;101131.59;4482287;32;34638;-67
2021/03/03 09:52:36;;;;;;;19.87;6.70;;;;;;;23.88;35.87;101130.75;4482627;32;34931;-54
2021/03/03 09:55:03;;;;;;;;;;;;;;;23.89;35.88;101131.59;4483023;32;34108;-59
2021/03/03 09:57:30;;;;;;;22.05;7.75;;;;;;;23.99;35.70;101128.53;4482622;32;33209;-64
2021/03/03 09:59:57;;;;;;;19.80;6.75;;;;;;;23.91;36.01;101121.31;4482830;32;34511;-62
2021/03/03 10:02:26;;;;;;;12.65;6.53;;;;;;;23.91;36.03;101129.50;4482570;32;33999;-58
2021/03/03 10:04:54;;;;;;;21.58;6.80;;;;;;;23.91;35.88;101121.31;4481236;32;33633;-53
2021/03/03 10:07:22;;;;;;;18.83;7.12;;;;;;;23.90;35.95;101119.66;4481260;31;34127;-53
2021/03/03 10:09:51;;;;;;;20.27;7.05;;;;;;;23.91;35.87;101127.63;4468352;32;34649;-53
2021/03/03 10:12:21;;;;;;;18.10;6.65;;;;;;;23.95;35.82;101117.16;4481849;32;33901;-56
2021/03/03 10:14:56;;;;;;;22.13;7.20;;;;;;;24.03;35.76;101118.91;4482516;32;33832;-57
2021/03/03 10:17:30;;;;;;;14.07;6.90;;;;;;;24.11;35.73;101116.03;4484529;32;33307;-62
2021/03/03 10:19:58;;;;;;;12.37;6.07;;;;;;;24.19;35.61;101122.16;4476918;32;33099;-65
2021/03/03 10:22:26;;;;;;;18.17;6.37;;;;;;;24.32;35.36;101120.56;4484026;31;33305;-66
2021/03/03 10:25:04;;;;;;;15.27;6.43;;;;;;;24.48;35.17;101119.41;4484577;32;33928;-54
2021/03/03 10:27:35;;;;;;;14.25;6.07;;;;;;;24.63;35.01;101123.72;4483135;32;33204;-58
2021/03/03 10:30:22;;;;;;;13.38;6.37;;;;;;;24.79;34.82;101122.50;4484000;32;34796;-56
2021/03/03 10:32:50;;;;;;;15.43;6.10;;;;;;;25.00;34.61;101109.78;4484542;32;33701;-63
2021/03/03 10:35:17;;;;;;;18.10;6.62;;;;;;;25.15;34.43;101119.50;4484494;32;33753;-68
2021/03/03 10:37:44;;;;;;;13.85;6.60;;;;;;;25.31;34.27;101111.97;4483265;32;33016;-57
2021/03/03 10:40:13;;;;;;;14.63;6.40;;;;;;;25.47;34.07;101105.28;4483000;32;34573;-53
2021/03/03 10:42:40;;;;;;;13.20;6.00;;;;;;;25.60;33.93;101108.00;4483029;32;33852;-56
2021/03/03 10:45:24;;;;;;;15.68;6.35;;;;;;;25.73;33.78;101105.28;4482967;32;33829;-55
2021/03/03 10:47:51;;;;;;;14.60;5.72;;;;;;;25.88;33.64;101094.16;4484159;32;33365;-51
2021/03/03 10:50:32;;;;;;;15.95;5.68;;;;;;;25.97;33.55;101090.16;4484030;32;34434;-54
2021/03/03 10:53:00;;;;;;;14.70;5.97;;;;;;;26.11;33.40;101080.03;4483028;32;34938;-52
2021/03/03 10:55:32;;;;;;;11.75;5.85;;;;;;;26.24;33.26;101079.16;4484132;32;33662;-53
2021/03/03 10:58:00;;;;;;;12.32;5.87;;;;;;;26.34;33.16;101072.16;4484316;32;34256;-51
2021/03/03 11:00:27;;;;;;;12.02;5.87;;;;;;;26.47;33.05;101067.75;4484090;32;33548;-64
2021/03/03 11:03:01;;;;;;;13.57;6.00;;;;;;;26.56;33.02;101064.56;4484145;32;35166;-66
2021/03/03 11:05:28;;;;;;;10.70;5.30;;;;;;;26.66;32.87;101056.72;4483926;32;33730;-68
2021/03/03 11:08:04;;;;;;;10.52;5.20;;;;;;;26.74;32.80;101049.31;4484239;32;33247;-63
2021/03/03 11:10:32;;;;;;;10.68;5.12;;;;;;;26.81;32.73;101053.69;4483846;32;34689;-53
2021/03/03 11:13:00;;;;;;;12.15;6.35;;;;;;;26.85;32.74;101052.19;4484140;32;33921;-56
2021/03/03 11:15:27;;;;;;;13.35;5.22;;;;;;;26.88;32.71;101048.19;4484260;32;34638;-60
2021/03/03 11:17:54;;;;;;;9.43;4.85;;;;;;;26.88;32.70;101040.81;4484050;32;34593;-60
2021/03/03 11:20:21;;;;;;;11.60;5.32;;;;;;;26.90;32.70;101038.66;4484491;32;33787;-56
2021/03/03 11:22:48;;;;;;;14.65;5.45;;;;;;;26.86;32.11;101028.38;4484131;32;34073;-56
2021/03/03 11:25:16;;;;;;;13.50;6.90;;;;;;;26.81;30.64;101029.03;4484280;32;34758;-59
2021/03/03 11:27:43;;;;;;;12.48;6.40;;;;;;;26.79;30.22;101028.44;4484159;32;33486;-63
2021/03/03 11:30:11;;;;;;;12.75;6.43;;;;;;;26.77;29.89;101018.78;4483929;32;34517;-57